Latest Weather Observations for Jandakot

IDW60801

Issued at 10:03 pm WST Friday 23 April 2021 (issued every 10 minutes, with the page automatically refreshed every 10 minutes)

About weather observations | Map of weather stations | Latest weather observations for WA | Other Formats
Station Details ID: 009172 Name: JANDAKOT AERO Lat: -32.10 Lon: 115.88 Height: 30.0 m
Data from the previous 72 hours. | See also: Recent months at Jandakot
Date/Time
WST
Temp
°C
App
Temp
°C
Dew
Point
°C
Rel
Hum
%
Delta-T
°C
Wind Press
QNH
hPa
Press
MSL
hPa
Rain since
9am
mm
Dir  Spd
km/h
Gust
km/h
Spd
kts
Gust
kts
23/10:00pm 15.2 14.7 12.7 85 1.4 SE 7 7 4 4 1018.9 1018.8 0.0
23/09:30pm 16.8 16.3 12.7 77 2.3 SSW 7 7 4 4 1019.0 1018.9 0.0
23/09:00pm 17.4 18.4 13.1 76 2.4 CALM 0 0 0 0 1019.0 1018.9 0.0
23/08:30pm 17.5 18.5 13.2 76 2.4 CALM 0 0 0 0 1018.7 1018.6 0.0
23/08:00pm 17.7 18.8 13.6 77 2.3 CALM 0 0 0 0 1018.6 1018.5 0.0
23/07:30pm 18.2 19.2 13.1 72 2.9 CALM 0 0 0 0 1018.6 1018.5 0.0
23/07:00pm 19.5 20.6 13.4 68 3.5 CALM 0 0 0 0 1018.5 1018.4 0.0
23/06:30pm 20.3 20.3 13.7 66 3.8 SSW 6 7 3 4 1018.3 1018.2 0.0
23/06:00pm 21.7 20.8 13.6 60 4.7 SSW 11 13 6 7 1018.0 1017.9 0.0
23/05:30pm 22.5 21.5 13.3 56 5.3 SW 11 13 6 7 1017.8 1017.7 0.0
23/05:00pm 23.1 21.7 14.4 58 5.1 WSW 15 20 8 11 1017.7 1017.6 0.0
23/04:30pm 23.6 21.2 14.3 56 5.5 WSW 20 26 11 14 1017.4 1017.3 0.0
23/04:00pm 25.2 21.7 12.1 44 7.5 WSW 22 28 12 15 1017.3 1017.2 0.0
23/03:30pm 26.0 22.8 11.4 40 8.3 WSW 19 22 10 12 1017.2 1017.1 0.0
23/03:00pm 28.4 26.7 7.6 27 11.2 NNW 6 11 3 6 1017.0 1016.9 0.0
23/02:30pm 28.3 26.4 9.1 30 10.6 SW 9 13 5 7 1017.0 1016.9 0.0
23/02:00pm 27.9 25.5 8.7 30 10.5 SSE 11 19 6 10 1017.1 1017.0 0.0
23/01:30pm 27.7 26.5 9.5 32 10.1 SW 6 11 3 6 1017.6 1017.5 0.0
23/01:00pm 27.6 27.2 9.9 33 9.9 WSW 2 9 1 5 1018.0 1017.9 0.0
23/12:30pm 26.8 24.8 8.7 32 9.9 NE 9 13 5 7 1018.5 1018.4 0.0
23/12:00pm 25.7 24.2 9.1 35 9.0 ESE 7 13 4 7 1019.1 1019.0 0.0
23/11:30am 25.0 23.8 9.7 38 8.4 ENE 6 13 3 7 1019.7 1019.6 0.0
23/11:00am 24.0 20.9 8.8 38 8.1 ENE 15 20 8 11 1020.0 1019.9 0.0
23/10:30am 23.7 20.7 9.3 40 7.8 ENE 15 20 8 11 1020.1 1020.0 0.0
23/10:00am 22.8 19.5 9.6 43 7.1 ENE 17 20 9 11 1020.4 1020.3 0.0
23/09:30am 20.4 18.5 10.5 53 5.4 ESE 11 15 6 8 1020.4 1020.3 0.0
23/09:00am 18.8 16.9 10.4 58 4.5 E 11 13 6 7 1020.7 1020.6 0.0
23/08:30am 18.0 16.1 10.4 61 4.1 ESE 11 13 6 7 1020.7 1020.6 0.0
23/08:00am 16.1 14.1 10.2 68 3.1 ESE 11 13 6 7 1020.5 1020.4 0.0
23/07:30am 15.0 12.5 9.8 71 2.7 ESE 13 15 7 8 1020.4 1020.3 0.0
23/07:00am 14.8 12.6 9.4 70 2.8 ESE 11 15 6 8 1020.2 1020.1 0.0
23/06:30am 14.8 12.3 9.6 71 2.7 ESE 13 15 7 8 1020.1 1020.0 0.0
23/06:00am 15.3 13.1 9.4 68 3.0 ESE 11 15 6 8 1019.9 1019.8 0.0
23/05:30am 15.5 13.4 9.6 68 3.1 ESE 11 13 6 7 1019.8 1019.7 0.0
23/05:00am 15.3 12.8 9.7 69 2.9 ESE 13 15 7 8 1019.7 1019.6 0.0
23/04:30am 16.3 14.9 9.5 64 3.5 SE 7 9 4 5 1019.7 1019.6 0.0
23/04:00am 16.1 14.7 9.5 65 3.4 ESE 7 9 4 5 1019.8 1019.7 0.0
23/03:30am 16.4 14.6 9.3 63 3.7 SE 9 9 5 5 1020.0 1019.9 0.0
23/03:00am 16.2 14.8 9.4 64 3.5 SE 7 9 4 5 1020.1 1020.0 0.0
23/02:30am 16.2 14.0 9.4 64 3.5 ESE 11 13 6 7 1020.3 1020.2 0.0
23/02:00am 16.1 14.3 9.3 64 3.5 ESE 9 13 5 7 1020.6 1020.5 0.0
23/01:30am 16.4 14.2 9.3 63 3.7 ESE 11 13 6 7 1020.5 1020.4 0.0
23/01:00am 16.9 14.4 9.6 62 3.8 E 13 15 7 8 1020.4 1020.3 0.0
23/12:30am 17.2 15.1 9.6 61 4.0 E 11 15 6 8 1020.5 1020.4 0.0
23/12:00am 17.3 14.8 9.7 61 4.0 E 13 19 7 10 1020.6 1020.5 0.0
 
Date/Time
WST
Temp
°C
App
Temp
°C
Dew
Point
°C
Rel
Hum
%
Delta-T
°C
Wind Press
QNH
hPa
Press
MSL
hPa
Rain since
9am
mm
Dir  Spd
km/h
Gust
km/h
Spd
kts
Gust
kts
22/11:30pm 17.5 15.0 9.7 60 4.1 ESE 13 19 7 10 1020.8 1020.7 0.0
22/11:00pm 17.9 14.7 9.8 59 4.3 ESE 17 20 9 11 1021.1 1021.0 0.0
22/10:30pm 17.9 14.7 9.8 59 4.3 ESE 17 22 9 12 1021.4 1021.3 0.0
22/10:00pm 17.6 15.1 9.8 60 4.1 ESE 13 17 7 9 1022.0 1021.9 0.0
22/09:30pm 18.5 16.1 10.1 58 4.5 E 13 19 7 10 1021.8 1021.7 0.0
22/09:00pm 17.5 16.4 9.9 61 4.0 SE 6 11 3 6 1021.6 1021.5 0.0
22/08:30pm 17.0 15.9 10.6 66 3.4 SE 7 9 4 5 1021.5 1021.4 0.0
22/08:00pm 18.2 16.8 10.8 62 4.0 SE 9 11 5 6 1021.6 1021.5 0.0
22/07:30pm 19.0 16.5 11.1 60 4.3 SSE 15 15 8 8 1021.7 1021.6 0.0
22/07:00pm 19.5 17.9 11.5 60 4.4 SSE 11 15 6 8 1021.9 1021.8 0.0
22/06:30pm 19.9 18.3 11.7 59 4.5 SSE 11 15 6 8 1021.5 1021.4 0.0
22/06:00pm 20.9 19.0 11.8 56 5.1 S 13 15 7 8 1021.1 1021.0 0.0
22/05:30pm 21.8 20.2 11.5 52 5.7 SSE 11 15 6 8 1020.6 1020.5 0.0
22/05:00pm 22.7 19.8 9.5 43 7.1 ESE 15 17 8 9 1020.2 1020.1 0.0
22/04:30pm 23.2 19.6 8.5 39 7.8 E 17 20 9 11 1020.3 1020.2 0.0
22/04:00pm 23.6 20.9 8.8 39 7.9 ENE 13 19 7 10 1020.5 1020.4 0.0
22/03:30pm 24.0 21.9 8.4 37 8.3 ENE 9 15 5 8 1020.6 1020.5 0.0
22/03:00pm 24.3 21.4 9.5 39 8.0 ESE 15 20 8 11 1020.7 1020.6 0.0
22/02:30pm 24.3 21.3 9.1 38 8.2 ESE 15 24 8 13 1020.8 1020.7 0.0
22/02:00pm 23.8 21.2 9.4 40 7.8 ENE 13 20 7 11 1021.2 1021.1 0.0
22/01:30pm 24.0 20.8 9.9 41 7.7 ENE 17 33 9 18 1021.5 1021.4 0.0
22/01:00pm 23.3 19.6 10.0 43 7.2 NE 20 28 11 15 1022.1 1022.0 0.0
22/12:30pm 23.8 20.3 10.1 42 7.5 NE 19 26 10 14 1022.6 1022.5 0.0
22/12:00pm 23.4 20.2 10.1 43 7.3 NE 17 24 9 13 1023.1 1023.0 0.0
22/11:30am 23.1 19.1 10.5 45 6.9 NE 22 30 12 16 1023.4 1023.3 0.0
22/11:00am 22.6 19.4 11.4 49 6.2 ENE 19 26 10 14 1023.8 1023.7 0.0
22/10:30am 20.9 17.6 11.5 55 5.2 ENE 20 28 11 15 1023.9 1023.8 0.0
22/10:00am 20.3 16.9 11.2 56 5.0 ENE 20 30 11 16 1024.5 1024.4 0.0
22/09:30am 19.3 16.2 11.6 61 4.2 ENE 19 24 10 13 1024.7 1024.6 0.0
22/09:00am 18.5 15.8 11.8 65 3.7 E 17 20 9 11 1024.9 1024.8 0.0
22/08:30am 16.9 14.7 12.0 73 2.7 E 15 20 8 11 1024.9 1024.8 0.0
22/08:00am 15.7 14.0 12.3 80 1.9 E 13 20 7 11 1024.8 1024.7 0.0
22/07:30am 14.9 11.9 11.9 82 1.6 E 19 24 10 13 1024.4 1024.3 0.0
22/07:00am 14.3 11.6 11.6 84 1.4 E 17 20 9 11 1024.2 1024.1 0.0
22/06:30am 14.5 12.2 11.7 83 1.5 E 15 20 8 11 1023.9 1023.8 0.0
22/06:00am 14.6 11.6 11.9 84 1.5 E 19 26 10 14 1023.7 1023.6 0.0
22/05:30am 14.5 11.9 12.0 85 1.4 E 17 20 9 11 1023.8 1023.7 0.0
22/05:00am 14.7 12.1 12.0 84 1.5 E 17 24 9 13 1023.6 1023.5 0.0
22/04:30am 14.8 12.3 12.3 85 1.4 E 17 22 9 12 1023.1 1023.0 0.0
22/04:00am 15.0 12.1 12.3 84 1.5 ESE 19 24 10 13 1023.0 1022.9 0.0
22/03:30am 15.1 12.6 12.2 83 1.6 ESE 17 22 9 12 1023.2 1023.1 0.0
22/03:00am 15.2 12.3 12.2 82 1.6 ESE 19 22 10 12 1023.5 1023.4 0.0
22/02:30am 15.6 12.6 11.8 78 2.1 ESE 19 26 10 14 1023.5 1023.4 0.0
22/02:00am 15.9 11.8 11.5 75 2.4 ESE 24 35 13 19 1023.6 1023.5 0.0
22/01:30am 16.0 11.8 11.0 72 2.7 ESE 24 30 13 16 1023.7 1023.6 0.0
22/01:00am 15.7 11.6 10.0 69 3.0 ESE 22 30 12 16 1023.7 1023.6 0.0
22/12:30am 13.9 10.8 8.9 72 2.5 E 15 20 8 11 1023.8 1023.7 0.0
22/12:00am 11.8 9.4 8.5 80 1.6 ESE 11 13 6 7 1023.8 1023.7 0.0
 
Date/Time
WST
Temp
°C
App
Temp
°C
Dew
Point
°C
Rel
Hum
%
Delta-T
°C
Wind Press
QNH
hPa
Press
MSL
hPa
Rain since
9am
mm
Dir  Spd
km/h
Gust
km/h
Spd
kts
Gust
kts
21/11:30pm 12.4 9.2 8.5 77 1.9 SE 15 19 8 10 1024.0 1023.9 0.0
21/11:00pm 10.7 9.8 7.9 83 1.3 ESE 2 11 1 6 1024.3 1024.2 0.0
21/10:30pm 13.2 13.1 9.6 79 1.8 CALM 0 0 0 0 1024.5 1024.4 0.0
21/10:00pm 14.3 13.0 9.3 72 2.5 SE 6 7 3 4 1024.6 1024.5 0.0
21/09:30pm 14.8 13.1 9.8 72 2.6 SE 9 11 5 6 1024.4 1024.3 0.0
21/09:00pm 15.6 14.0 10.2 70 2.8 SE 9 11 5 6 1024.1 1024.0 0.0
21/08:30pm 16.7 14.7 10.3 66 3.4 SE 11 13 6 7 1023.9 1023.8 0.0
21/08:00pm 17.8 15.3 10.9 64 3.7 SSE 15 17 8 9 1023.9 1023.8 0.0
21/07:30pm 18.9 16.4 11.0 60 4.3 SSE 15 19 8 10 1023.7 1023.6 0.0
21/07:00pm 19.9 17.8 11.1 57 4.8 SSE 13 15 7 8 1023.4 1023.3 0.0
21/06:30pm 20.6 19.2 11.0 54 5.3 SSE 9 11 5 6 1023.1 1023.0 0.0
21/06:00pm 21.3 19.5 10.8 51 5.7 E 11 13 6 7 1022.7 1022.6 0.0
21/05:30pm 23.3 21.1 10.7 45 7.0 E 13 17 7 9 1022.5 1022.4 0.0
21/05:00pm 24.6 22.3 10.5 41 7.8 ESE 13 24 7 13 1022.4 1022.3 0.0
21/04:30pm 25.1 22.8 10.6 40 8.1 E 13 19 7 10 1022.4 1022.3 0.0
21/04:00pm 25.3 22.5 10.0 38 8.4 SE 15 20 8 11 1022.2 1022.1 0.0
21/03:30pm 25.8 22.2 10.0 37 8.8 SE 19 28 10 15 1022.1 1022.0 0.0
21/03:00pm 25.8 24.2 11.6 41 8.1 ESE 11 17 6 9 1022.1 1022.0 0.0
21/02:30pm 25.7 23.2 11.1 40 8.2 SE 15 24 8 13 1022.1 1022.0 0.0
21/02:00pm 25.5 23.6 11.7 42 7.8 ENE 13 19 7 10 1022.2 1022.1 0.0
21/01:30pm 24.8 22.5 11.7 44 7.4 ESE 15 20 8 11 1022.4 1022.3 0.0
21/01:00pm 24.1 21.7 11.4 45 7.1 SE 15 22 8 12 1022.8 1022.7 0.0
21/12:30pm 24.8 23.1 12.4 46 7.1 SE 13 28 7 15 1023.2 1023.1 0.0
21/12:00pm 23.5 22.1 12.2 49 6.4 E 11 20 6 11 1023.5 1023.4 0.0
21/11:30am 23.2 20.8 12.5 51 6.1 ESE 17 22 9 12 1023.6 1023.5 0.0
21/11:00am 22.6 20.6 12.8 54 5.6 ESE 15 26 8 14 1023.7 1023.6 0.0
21/10:30am 21.7 19.3 12.8 57 5.1 ESE 17 22 9 12 1023.7 1023.6 0.0
21/10:00am 20.7 18.0 12.9 61 4.4 SE 19 24 10 13 1023.8 1023.7 0.0
21/09:30am 19.7 16.8 12.9 65 3.8 ESE 20 26 11 14 1023.9 1023.8 0.0
21/09:00am 18.4 15.3 12.2 67 3.4 ESE 20 28 11 15 1024.1 1024.0 0.0
21/08:30am 17.2 14.2 12.7 75 2.5 ESE 20 26 11 14 1024.2 1024.1 0.0
21/08:00am 15.6 13.5 12.4 81 1.7 SE 15 19 8 10 1023.9 1023.8 0.0
21/07:30am 13.8 11.2 12.0 89 1.0 ESE 17 20 9 11 1023.7 1023.6 0.0
21/07:00am 10.8 9.7 10.5 98 0.2 ESE 7 9 4 5 1023.4 1023.3 0.0
21/06:30am 10.2 10.2 9.9 98 0.2 CALM 0 0 0 0 1023.4 1023.3 0.0
21/06:00am 9.8 9.7 9.3 97 0.2 CALM 0 0 0 0 1023.1 1023.0 0.0
21/05:30am 10.6 10.7 10.1 97 0.3 CALM 0 0 0 0 1022.8 1022.7 0.0
21/05:00am 11.5 11.9 11.2 98 0.2 CALM 0 6 0 3 1022.5 1022.4 0.0
21/04:30am 11.9 11.1 11.0 94 0.5 S 6 7 3 4 1022.4 1022.3 0.0
21/04:00am 12.4 11.5 10.8 90 0.8 SSE 6 7 3 4 1022.1 1022.0 0.0
21/03:30am 13.2 12.0 11.6 90 0.9 SSE 9 13 5 7 1022.1 1022.0 0.0
21/03:00am 13.7 11.6 12.3 91 0.8 S 15 17 8 9 1022.3 1022.2 0.0
21/02:33am 12.6 11.3 11.3 92 0.7 SSE 9 11 5 6 1022.1 1022.0 0.0
21/02:30am 12.8 11.5 11.4 91 0.7 S 9 11 5 6 1022.0 1021.9 0.0
21/02:15am 13.6 12.1 12.0 90 0.9 S 11 13 6 7 1022.2 1022.1 0.0
21/02:00am 13.8 12.5 12.4 91 0.8 S 11 13 6 7 1022.3 1022.2 0.0
21/01:30am 14.2 12.5 12.6 90 0.9 S 13 17 7 9 1022.3 1022.2 0.0
21/01:00am 13.8 12.9 12.7 93 0.6 S 9 11 5 6 1022.2 1022.1 0.0
21/12:30am 13.2 12.4 11.6 90 0.9 SSE 7 7 4 4 1021.8 1021.7 0.0
21/12:00am 14.5 13.3 12.9 90 0.9 S 11 13 6 7 1021.9 1021.8 0.0
 
Date/Time
WST
Temp
°C
App
Temp
°C
Dew
Point
°C
Rel
Hum
%
Delta-T
°C
Wind Press
QNH
hPa
Press
MSL
hPa
Rain since
9am
mm
Dir  Spd
km/h
Gust
km/h
Spd
kts
Gust
kts
20/11:30pm 14.7 13.9 12.9 89 1.0 S 9 11 5 6 1021.8 1021.7 0.0
20/11:00pm 15.2 14.1 13.1 87 1.2 SSW 11 11 6 6 1022.0 1021.9 0.0
20/10:30pm 15.4 15.0 12.9 85 1.4 S 7 11 4 6 1021.9 1021.8 0.0

Other formats

Comma delimited format used in spreadsheet applications
http://www.bom.gov.au/fwo/IDW60801/IDW60801.94609.axf

JavaScript Object Notation format (JSON) in row-major order
http://www.bom.gov.au/fwo/IDW60801/IDW60801.94609.json

Data quality

Most of these data are generated automatically and are frequently updated. Quality checks on data are not normally performed. It is possible for incorrect values to appear. Refer to information at About Latest Weather Observations and please check the disclaimer before using these data.